createdAt,value
2018-10-02T00:01:33.018Z,11.70
2018-10-02T00:04:01.619Z,11.60
2018-10-02T00:06:30.167Z,11.60
2018-10-02T00:08:58.824Z,11.60
2018-10-02T00:11:32.779Z,11.60
2018-10-02T00:14:07.095Z,11.70
2018-10-02T00:16:35.671Z,11.60
2018-10-02T00:19:04.264Z,11.60
2018-10-02T00:21:32.937Z,11.60
2018-10-02T00:24:01.527Z,11.60
2018-10-02T00:26:30.095Z,11.60
2018-10-02T00:28:58.986Z,11.50
2018-10-02T00:31:27.693Z,11.40
2018-10-02T00:33:56.250Z,11.40
2018-10-02T00:36:24.871Z,11.40
2018-10-02T00:38:53.647Z,11.30
2018-10-02T00:41:22.211Z,11.30
2018-10-02T00:43:50.984Z,11.30
2018-10-02T00:46:19.584Z,11.30
2018-10-02T00:48:48.334Z,11.20
2018-10-02T00:51:17.387Z,11.30
2018-10-02T00:53:45.939Z,11.20
2018-10-02T00:56:14.624Z,11.20
2018-10-02T00:58:43.221Z,11.20
2018-10-02T01:01:11.784Z,11.20
2018-10-02T01:03:40.361Z,11.20
2018-10-02T01:06:09.456Z,11.20
2018-10-02T01:08:38.069Z,11.20
2018-10-02T01:11:06.647Z,11.20
2018-10-02T01:13:35.218Z,11.20
2018-10-02T01:16:03.801Z,11.20
2018-10-02T01:18:32.437Z,11.20
2018-10-02T01:21:01.159Z,11.10
2018-10-02T01:23:29.788Z,11.10
2018-10-02T01:25:58.394Z,11.10
2018-10-02T01:28:27.374Z,11.10
2018-10-02T01:30:55.951Z,11.10
2018-10-02T01:33:24.523Z,11.10
2018-10-02T01:35:53.167Z,11.10
2018-10-02T01:38:21.755Z,11.10
2018-10-02T01:40:50.334Z,11.10
2018-10-02T01:43:19.195Z,11.10
2018-10-02T01:45:47.797Z,11.10
2018-10-02T01:48:16.461Z,11.10
2018-10-02T01:50:45.545Z,11.10
2018-10-02T01:53:14.110Z,11.10
2018-10-02T01:55:42.763Z,11.10
2018-10-02T01:58:11.906Z,11.20
2018-10-02T02:00:40.523Z,11.20
2018-10-02T02:03:09.138Z,11.10
2018-10-02T02:05:37.747Z,11.10
2018-10-02T02:08:06.756Z,11.10
2018-10-02T02:10:35.405Z,11.10
2018-10-02T02:13:04.034Z,11.10
2018-10-02T02:15:32.595Z,11.10
2018-10-02T02:18:01.295Z,11.10
2018-10-02T02:20:29.881Z,11.10
2018-10-02T02:22:58.548Z,11.10
2018-10-02T02:25:27.150Z,11.10
2018-10-02T02:27:55.767Z,11.10
2018-10-02T02:30:24.351Z,11.10
2018-10-02T02:32:52.966Z,11.10
2018-10-02T02:35:21.563Z,11.10
2018-10-02T02:37:50.281Z,11.10
2018-10-02T02:40:18.899Z,11.20
2018-10-02T02:42:47.486Z,11.20
2018-10-02T02:45:16.058Z,11.20
2018-10-02T02:47:50.046Z,11.20
2018-10-02T02:50:24.228Z,11.20
2018-10-02T02:53:25.231Z,11.20
2018-10-02T02:55:53.827Z,11.20
2018-10-02T02:58:22.450Z,11.20
2018-10-02T03:00:51.120Z,11.20
2018-10-02T03:03:19.700Z,11.20
2018-10-02T03:05:48.320Z,11.20
2018-10-02T03:08:20.507Z,11.10
2018-10-02T03:10:49.140Z,11.10
2018-10-02T03:13:17.715Z,11.10
2018-10-02T03:15:46.353Z,11.20
2018-10-02T03:18:14.951Z,11.20
2018-10-02T03:20:43.588Z,11.20
2018-10-02T03:23:12.201Z,11.20
2018-10-02T03:25:40.825Z,11.20
2018-10-02T03:28:09.407Z,11.30
2018-10-02T03:30:38.004Z,11.20
2018-10-02T03:33:06.747Z,11.20
2018-10-02T03:35:35.416Z,11.20
2018-10-02T03:38:04.005Z,11.20
2018-10-02T03:40:32.582Z,11.20
2018-10-02T03:43:01.219Z,11.20
2018-10-02T03:45:29.920Z,11.20
2018-10-02T03:47:58.661Z,11.10
2018-10-02T03:50:27.259Z,11.10
2018-10-02T03:52:55.917Z,11.10
2018-10-02T03:55:24.532Z,11.10
2018-10-02T03:57:53.123Z,11.00
2018-10-02T04:00:21.774Z,11.00
2018-10-02T04:02:50.368Z,11.00
2018-10-02T04:05:18.925Z,11.10
2018-10-02T04:07:47.487Z,11.00
2018-10-02T04:10:16.071Z,11.00
2018-10-02T04:12:44.652Z,11.00
2018-10-02T04:15:13.353Z,10.90
2018-10-02T04:17:41.918Z,11.00
2018-10-02T04:20:10.490Z,10.90
2018-10-02T04:22:39.094Z,10.90
2018-10-02T04:25:07.696Z,10.90
2018-10-02T04:27:36.523Z,10.90
2018-10-02T04:30:05.781Z,10.90
2018-10-02T04:32:34.350Z,10.90
2018-10-02T04:35:02.928Z,10.90
2018-10-02T04:37:31.515Z,10.90
2018-10-02T04:40:00.139Z,11.00
2018-10-02T04:42:28.725Z,11.00
2018-10-02T04:44:57.317Z,11.00
2018-10-02T04:47:25.887Z,11.10
2018-10-02T04:49:54.464Z,11.10
2018-10-02T04:52:23.067Z,11.10
2018-10-02T04:54:51.704Z,11.10
2018-10-02T04:57:20.313Z,11.20
2018-10-02T04:59:48.933Z,11.30
2018-10-02T05:02:17.557Z,11.30
2018-10-02T05:04:46.171Z,11.40
2018-10-02T05:07:14.758Z,11.40
2018-10-02T05:09:43.373Z,11.40
2018-10-02T05:12:12.216Z,11.40
2018-10-02T05:14:41.152Z,11.50
2018-10-02T05:17:09.856Z,11.50
2018-10-02T05:19:38.475Z,11.50
2018-10-02T05:22:07.103Z,11.50
2018-10-02T05:24:35.768Z,11.50
2018-10-02T05:27:04.384Z,11.50
2018-10-02T05:29:33.152Z,11.50
2018-10-02T05:32:01.803Z,11.50
2018-10-02T05:34:30.483Z,11.50
2018-10-02T05:36:59.182Z,11.50
2018-10-02T05:39:27.801Z,11.50
2018-10-02T05:41:56.531Z,11.50
2018-10-02T05:44:25.137Z,11.50
2018-10-02T05:46:53.769Z,11.50
2018-10-02T05:49:22.376Z,11.50
2018-10-02T05:51:51.003Z,11.50
2018-10-02T05:54:19.622Z,11.50
2018-10-02T05:56:48.446Z,11.50
2018-10-02T05:59:17.400Z,11.50
2018-10-02T06:01:46.914Z,11.90
2018-10-02T06:04:15.682Z,11.50
2018-10-02T06:06:44.776Z,11.40
2018-10-02T06:09:13.992Z,11.40
2018-10-02T06:11:42.782Z,11.40
2018-10-02T06:14:11.872Z,11.40
2018-10-02T06:16:40.951Z,11.40
2018-10-02T06:19:10.297Z,11.40
2018-10-02T06:21:38.912Z,11.40
2018-10-02T06:24:07.863Z,11.40
2018-10-02T06:26:36.474Z,11.40
2018-10-02T06:29:05.174Z,11.40
2018-10-02T06:31:33.806Z,11.50
2018-10-02T06:34:02.541Z,11.40
2018-10-02T06:36:31.219Z,11.50
2018-10-02T06:39:00.013Z,11.50
2018-10-02T06:41:28.623Z,11.50
2018-10-02T06:43:57.303Z,11.50
2018-10-02T06:46:25.909Z,11.60
2018-10-02T06:48:54.675Z,11.60
2018-10-02T06:51:23.549Z,11.60
2018-10-02T06:53:52.043Z,11.60
2018-10-02T06:56:20.656Z,11.60
2018-10-02T06:58:49.266Z,11.60
2018-10-02T07:01:17.899Z,11.60
2018-10-02T07:03:46.575Z,11.70
2018-10-02T07:06:15.250Z,11.70
2018-10-02T07:08:44.012Z,11.70
2018-10-02T07:11:12.483Z,11.70
2018-10-02T07:13:41.524Z,11.70
2018-10-02T07:16:10.145Z,11.70
2018-10-02T07:18:38.809Z,11.80
2018-10-02T07:21:07.726Z,11.80
2018-10-02T07:23:36.328Z,11.80
2018-10-02T07:26:04.917Z,11.90
2018-10-02T07:28:33.672Z,11.90
2018-10-02T07:31:02.313Z,11.90
2018-10-02T07:33:30.923Z,12.00
2018-10-02T07:35:59.628Z,12.00
2018-10-02T07:38:29.453Z,12.10
2018-10-02T07:40:58.045Z,12.10
2018-10-02T07:43:27.219Z,12.10
2018-10-02T07:45:55.824Z,12.20
2018-10-02T07:48:24.525Z,12.30
2018-10-02T07:50:53.261Z,12.30
2018-10-02T07:53:21.954Z,12.30
2018-10-02T07:55:50.557Z,12.40
2018-10-02T07:58:19.182Z,12.40
2018-10-02T08:00:47.799Z,12.40
2018-10-02T08:03:16.458Z,12.40
2018-10-02T08:05:45.376Z,12.40
2018-10-02T08:08:13.981Z,12.50
2018-10-02T08:10:42.594Z,12.60
2018-10-02T08:13:11.186Z,12.60
2018-10-02T08:15:40.236Z,12.60
2018-10-02T08:18:08.852Z,12.60
2018-10-02T08:20:37.552Z,12.60
2018-10-02T08:23:06.263Z,12.70
2018-10-02T08:25:34.921Z,12.70
2018-10-02T08:28:03.552Z,12.70
2018-10-02T08:30:32.195Z,12.70
2018-10-02T08:33:00.861Z,12.70
2018-10-02T08:35:29.498Z,12.80
2018-10-02T08:37:58.071Z,12.80
2018-10-02T08:40:26.718Z,12.80
2018-10-02T08:42:55.734Z,12.80
2018-10-02T08:45:24.340Z,12.80
2018-10-02T08:47:53.140Z,12.80
2018-10-02T08:50:21.814Z,12.80
2018-10-02T08:52:50.544Z,12.90
2018-10-02T08:55:19.154Z,12.90
2018-10-02T08:57:47.781Z,12.90
2018-10-02T09:00:16.436Z,12.90
2018-10-02T09:02:45.183Z,13.00
2018-10-02T09:05:13.808Z,13.00
2018-10-02T09:07:42.763Z,13.00
2018-10-02T09:10:11.355Z,13.10
2018-10-02T09:12:40.035Z,13.10
2018-10-02T09:15:12.158Z,13.10
2018-10-02T09:17:37.381Z,13.10
2018-10-02T09:20:06.424Z,13.10
2018-10-02T09:22:35.018Z,13.20
2018-10-02T09:25:03.700Z,13.20
2018-10-02T09:27:32.280Z,13.20
2018-10-02T09:30:06.206Z,13.30
2018-10-02T09:32:40.259Z,13.30
2018-10-02T09:35:14.242Z,13.30
2018-10-02T09:37:48.212Z,13.30
2018-10-02T09:40:22.193Z,13.30
2018-10-02T09:42:56.197Z,13.30
2018-10-02T09:45:24.989Z,13.40
2018-10-02T09:47:53.703Z,13.40
2018-10-02T09:50:22.346Z,13.40
2018-10-02T09:52:51.051Z,13.50
2018-10-02T09:55:19.716Z,13.50
2018-10-02T09:57:48.432Z,13.60
2018-10-02T10:00:27.193Z,13.60
2018-10-02T10:02:56.425Z,13.60
2018-10-02T10:05:25.024Z,13.70
2018-10-02T10:07:53.598Z,13.70
2018-10-02T10:10:22.565Z,13.70
2018-10-02T10:12:51.343Z,13.70
2018-10-02T10:15:19.936Z,13.80
2018-10-02T10:17:49.080Z,13.80
2018-10-02T10:20:17.778Z,13.90
2018-10-02T10:22:46.455Z,14.00
2018-10-02T10:25:15.032Z,14.10
2018-10-02T10:27:43.736Z,14.00
2018-10-02T10:30:12.343Z,14.10
2018-10-02T10:32:41.539Z,14.10
2018-10-02T10:35:10.146Z,14.10
2018-10-02T10:37:38.776Z,14.10
2018-10-02T10:40:07.347Z,14.20
2018-10-02T10:42:35.928Z,14.20
2018-10-02T10:45:04.608Z,14.30
2018-10-02T10:47:33.247Z,14.30
2018-10-02T10:50:01.846Z,14.40
2018-10-02T10:52:30.645Z,14.40
2018-10-02T10:55:10.461Z,14.40
2018-10-02T10:57:39.070Z,14.40
2018-10-02T11:00:07.724Z,14.50
2018-10-02T11:02:36.488Z,14.50
2018-10-02T11:05:05.299Z,14.50
2018-10-02T11:07:33.853Z,14.50
2018-10-02T11:10:02.484Z,14.60
2018-10-02T11:12:31.082Z,14.60
2018-10-02T11:14:59.696Z,14.60
2018-10-02T11:17:28.484Z,14.70
2018-10-02T11:19:57.211Z,14.70
2018-10-02T11:22:25.952Z,14.80
2018-10-02T11:24:54.552Z,14.80
2018-10-02T11:27:23.130Z,14.80
2018-10-02T11:29:51.984Z,14.90
2018-10-02T11:32:21.031Z,14.90
2018-10-02T11:34:49.732Z,15.00
2018-10-02T11:37:18.352Z,15.20
2018-10-02T11:39:47.015Z,15.30
2018-10-02T11:42:15.691Z,15.40
2018-10-02T11:44:44.842Z,15.40
2018-10-02T11:47:13.557Z,15.30
2018-10-02T11:49:42.203Z,15.30
2018-10-02T11:52:10.756Z,15.40
2018-10-02T11:54:39.383Z,15.40
2018-10-02T11:57:08.258Z,15.40
2018-10-02T11:59:36.835Z,15.50
2018-10-02T12:02:05.880Z,15.50
2018-10-02T12:04:34.458Z,15.60
2018-10-02T12:07:03.281Z,15.80
2018-10-02T12:09:32.495Z,16.20
2018-10-02T12:12:01.311Z,16.50
2018-10-02T12:14:31.162Z,16.90
2018-10-02T12:16:59.674Z,17.30
2018-10-02T12:19:28.366Z,17.30
2018-10-02T12:21:56.924Z,17.20
2018-10-02T12:24:25.561Z,17.10
2018-10-02T12:26:54.187Z,17.30
2018-10-02T12:29:22.760Z,17.50
2018-10-02T12:31:51.680Z,17.50
2018-10-02T12:34:20.290Z,17.60
2018-10-02T12:36:48.948Z,17.70
2018-10-02T12:39:17.957Z,17.70
2018-10-02T12:41:46.588Z,17.60
2018-10-02T12:44:15.180Z,17.50
2018-10-02T12:46:44.070Z,17.30
2018-10-02T12:49:12.972Z,17.20
2018-10-02T12:51:41.552Z,17.10
2018-10-02T12:54:10.177Z,17.20
2018-10-02T12:56:38.798Z,17.10
2018-10-02T12:59:07.502Z,17.10
2018-10-02T13:01:36.529Z,16.90
2018-10-02T13:04:05.172Z,16.80
2018-10-02T13:06:33.752Z,16.80
2018-10-02T13:09:02.403Z,16.80
2018-10-02T13:11:30.993Z,16.70
2018-10-02T13:13:59.605Z,16.70
2018-10-02T13:16:28.311Z,16.70
2018-10-02T13:18:56.899Z,16.70
2018-10-02T13:21:25.532Z,16.60
2018-10-02T13:23:54.403Z,16.50
2018-10-02T13:26:22.984Z,16.40
2018-10-02T13:28:51.717Z,16.40
2018-10-02T13:31:20.348Z,16.30
2018-10-02T13:33:48.936Z,16.30
2018-10-02T13:36:17.538Z,16.30
2018-10-02T13:38:46.159Z,16.30
2018-10-02T13:41:14.734Z,16.40
2018-10-02T13:43:43.358Z,16.40
2018-10-02T13:46:11.993Z,16.40
2018-10-02T13:48:40.965Z,16.40
2018-10-02T13:51:09.556Z,16.40
2018-10-02T13:53:38.136Z,16.40
2018-10-02T13:56:06.804Z,16.40
2018-10-02T13:58:36.386Z,16.40
2018-10-02T14:01:05.208Z,16.40
2018-10-02T14:03:33.845Z,16.50
2018-10-02T14:06:02.509Z,16.50
2018-10-02T14:08:31.340Z,16.50
2018-10-02T14:11:00.420Z,16.50
2018-10-02T14:13:29.051Z,16.50
2018-10-02T14:15:58.117Z,16.40
2018-10-02T14:18:26.736Z,16.40
2018-10-02T14:20:55.542Z,16.40
2018-10-02T14:23:24.725Z,16.30
2018-10-02T14:25:53.377Z,16.30
2018-10-02T14:28:22.066Z,16.30
2018-10-02T14:30:50.744Z,16.30
2018-10-02T14:33:19.359Z,16.20
2018-10-02T14:35:47.975Z,16.20
2018-10-02T14:38:16.570Z,16.10
2018-10-02T14:40:45.232Z,16.10
2018-10-02T14:43:13.876Z,16.10
2018-10-02T14:45:42.465Z,16.00
2018-10-02T14:48:11.104Z,16.00
2018-10-02T14:50:39.697Z,15.90
2018-10-02T14:53:08.304Z,15.90
2018-10-02T14:55:37.309Z,15.90
2018-10-02T14:58:06.228Z,15.90
2018-10-02T15:00:35.566Z,15.90
2018-10-02T15:03:04.144Z,15.90
2018-10-02T15:05:32.878Z,15.90
2018-10-02T15:08:01.636Z,15.80
2018-10-02T15:10:30.251Z,15.80
2018-10-02T15:12:59.268Z,15.70
2018-10-02T15:15:28.107Z,15.60
2018-10-02T15:17:56.839Z,15.60
2018-10-02T15:20:25.446Z,15.60
2018-10-02T15:22:54.268Z,15.60
2018-10-02T15:25:23.405Z,15.50
2018-10-02T15:27:52.245Z,15.50
2018-10-02T15:30:20.899Z,15.50
2018-10-02T15:32:49.609Z,15.50
2018-10-02T15:35:18.210Z,15.50
2018-10-02T15:37:46.963Z,15.50
2018-10-02T15:40:15.425Z,15.50
2018-10-02T15:42:44.340Z,15.50
2018-10-02T15:45:13.533Z,15.50
2018-10-02T15:47:42.198Z,15.40
2018-10-02T15:50:10.819Z,15.40
2018-10-02T15:52:39.705Z,15.40
2018-10-02T15:55:08.380Z,15.30
2018-10-02T15:57:36.979Z,15.30
2018-10-02T16:00:06.426Z,15.20
2018-10-02T16:02:35.184Z,15.20
2018-10-02T16:05:03.946Z,15.30
2018-10-02T16:07:32.553Z,15.20
2018-10-02T16:10:01.280Z,15.20
2018-10-02T16:12:29.880Z,15.10
2018-10-02T16:14:58.947Z,15.10
2018-10-02T16:17:30.493Z,15.00
2018-10-02T16:19:59.083Z,15.00
2018-10-02T16:22:27.659Z,15.00
2018-10-02T16:24:56.372Z,15.00
2018-10-02T16:27:25.208Z,15.00
2018-10-02T16:29:53.825Z,14.90
2018-10-02T16:32:22.449Z,14.90
2018-10-02T16:34:51.683Z,14.90
2018-10-02T16:37:20.372Z,14.80
2018-10-02T16:39:49.052Z,14.90
2018-10-02T16:42:17.749Z,14.80
2018-10-02T16:44:46.607Z,14.80
2018-10-02T16:47:15.479Z,14.80
2018-10-02T16:49:44.101Z,14.80
2018-10-02T16:52:12.988Z,14.80
2018-10-02T16:54:41.585Z,14.80
2018-10-02T16:57:10.255Z,14.80
2018-10-02T16:59:38.962Z,14.80
2018-10-02T17:02:08.056Z,14.80
2018-10-02T17:04:36.681Z,14.80
2018-10-02T17:07:05.302Z,14.70
2018-10-02T17:09:33.908Z,14.70
2018-10-02T17:12:03.024Z,14.70
2018-10-02T17:14:31.716Z,14.70
2018-10-02T17:17:00.341Z,14.70
2018-10-02T17:19:28.982Z,14.70
2018-10-02T17:21:57.615Z,14.60
2018-10-02T17:24:26.240Z,14.60
2018-10-02T17:26:54.870Z,14.60
2018-10-02T17:29:23.610Z,14.60
2018-10-02T17:31:52.439Z,14.60
2018-10-02T17:34:21.135Z,14.60
2018-10-02T17:36:49.772Z,14.60
2018-10-02T17:39:18.427Z,14.60
2018-10-02T17:41:47.564Z,14.60
2018-10-02T17:44:16.176Z,14.60
2018-10-02T17:46:44.832Z,14.60
2018-10-02T17:49:13.429Z,14.60
2018-10-02T17:51:41.995Z,14.60
2018-10-02T17:54:10.656Z,14.60
2018-10-02T17:56:39.312Z,14.60
2018-10-02T17:59:07.914Z,14.60
2018-10-02T18:01:36.603Z,14.60
2018-10-02T18:04:05.302Z,14.60
2018-10-02T18:06:33.941Z,14.60
2018-10-02T18:09:02.581Z,14.50
2018-10-02T18:11:31.179Z,14.50
2018-10-02T18:14:00.058Z,14.50
2018-10-02T18:16:28.767Z,14.50
2018-10-02T18:18:57.431Z,14.50
2018-10-02T18:21:26.630Z,14.40
2018-10-02T18:23:55.277Z,14.40
2018-10-02T18:26:23.930Z,14.40
2018-10-02T18:28:52.559Z,14.40
2018-10-02T18:31:22.000Z,14.40
2018-10-02T18:33:51.127Z,14.40
2018-10-02T18:36:19.751Z,14.40
2018-10-02T18:38:48.453Z,14.40
2018-10-02T18:41:17.166Z,14.40
2018-10-02T18:43:45.764Z,14.40
2018-10-02T18:46:14.395Z,14.40
2018-10-02T18:48:43.354Z,14.40
2018-10-02T18:51:12.232Z,14.50
2018-10-02T18:53:40.892Z,14.40
2018-10-02T18:56:09.938Z,14.40
2018-10-02T18:58:38.569Z,14.40
2018-10-02T19:01:07.261Z,14.30
2018-10-02T19:03:35.967Z,14.30
2018-10-02T19:06:05.484Z,14.30
2018-10-02T19:08:39.325Z,14.30
2018-10-02T19:11:13.222Z,14.30
2018-10-02T19:13:41.910Z,14.30
2018-10-02T19:16:15.704Z,14.30
2018-10-02T19:18:45.095Z,14.30
2018-10-02T19:21:13.833Z,14.30
2018-10-02T19:23:42.807Z,14.30
2018-10-02T19:26:16.976Z,14.30
2018-10-02T19:28:45.627Z,14.30
2018-10-02T19:31:20.168Z,14.30
2018-10-02T19:33:49.203Z,14.30
2018-10-02T19:36:18.211Z,14.30
2018-10-02T19:38:56.503Z,14.30
2018-10-02T19:41:25.864Z,14.30
2018-10-02T19:43:54.943Z,14.30
2018-10-02T19:46:28.152Z,14.20
2018-10-02T19:48:56.915Z,14.20
2018-10-02T19:51:31.214Z,14.20
2018-10-02T19:53:59.966Z,14.20
2018-10-02T19:56:29.061Z,14.20
2018-10-02T19:58:58.767Z,14.20
2018-10-02T20:01:27.380Z,14.10
2018-10-02T20:03:55.980Z,14.20
2018-10-02T20:06:24.595Z,14.10
2018-10-02T20:08:53.820Z,14.10
2018-10-02T20:11:28.794Z,14.10
2018-10-02T20:13:57.556Z,14.10
2018-10-02T20:16:26.183Z,14.10
2018-10-02T20:18:54.988Z,14.10
2018-10-02T20:21:24.192Z,14.20
2018-10-02T20:23:53.321Z,14.20
2018-10-02T20:26:22.200Z,14.20
2018-10-02T20:28:50.846Z,14.20
2018-10-02T20:31:19.892Z,14.20
2018-10-02T20:33:48.635Z,14.20
2018-10-02T20:36:17.412Z,14.20
2018-10-02T20:38:46.063Z,14.20
2018-10-02T20:41:14.707Z,14.20
2018-10-02T20:43:43.447Z,14.20
2018-10-02T20:46:12.078Z,14.20
2018-10-02T20:48:40.737Z,14.20
2018-10-02T20:51:09.453Z,14.20
2018-10-02T20:53:38.041Z,14.20
2018-10-02T20:56:06.670Z,14.20
2018-10-02T20:58:35.283Z,14.20
2018-10-02T21:01:03.901Z,14.20
2018-10-02T21:03:32.483Z,14.20
2018-10-02T21:06:01.272Z,14.20
2018-10-02T21:08:29.930Z,14.20
2018-10-02T21:10:59.676Z,14.10
2018-10-02T21:13:28.289Z,14.10
2018-10-02T21:15:56.872Z,14.10
2018-10-02T21:18:26.572Z,14.10
2018-10-02T21:20:55.607Z,14.10
2018-10-02T21:23:24.637Z,14.10
2018-10-02T21:25:53.227Z,14.10
2018-10-02T21:28:21.826Z,14.10
2018-10-02T21:30:50.436Z,14.10
2018-10-02T21:33:19.065Z,14.00
2018-10-02T21:35:47.657Z,14.10
2018-10-02T21:38:16.276Z,14.00
2018-10-02T21:40:45.337Z,14.00
2018-10-02T21:43:13.965Z,14.00
2018-10-02T21:45:42.679Z,14.00
2018-10-02T21:48:11.599Z,13.90
2018-10-02T21:50:40.263Z,13.90
2018-10-02T21:53:08.863Z,13.90
2018-10-02T21:55:37.533Z,13.90
2018-10-02T21:58:06.135Z,13.90
2018-10-02T22:00:34.900Z,13.80
2018-10-02T22:03:03.745Z,13.90
2018-10-02T22:05:32.403Z,13.80
2018-10-02T22:08:01.164Z,13.80
2018-10-02T22:10:29.823Z,13.80
2018-10-02T22:12:58.480Z,13.80
2018-10-02T22:15:27.121Z,13.80
2018-10-02T22:17:55.707Z,13.80
2018-10-02T22:20:24.339Z,13.80
2018-10-02T22:22:52.917Z,13.70
2018-10-02T22:25:21.521Z,13.70
2018-10-02T22:27:50.091Z,13.70
2018-10-02T22:30:18.708Z,13.70
2018-10-02T22:32:47.312Z,13.70
2018-10-02T22:35:15.876Z,13.70
2018-10-02T22:37:44.473Z,13.70
2018-10-02T22:40:13.229Z,13.70
2018-10-02T22:42:41.864Z,13.70
2018-10-02T22:45:10.490Z,13.60
2018-10-02T22:47:39.082Z,13.60
2018-10-02T22:50:07.667Z,13.70
2018-10-02T22:52:36.219Z,13.60
2018-10-02T22:55:04.827Z,13.60
2018-10-02T22:57:33.452Z,13.60
2018-10-02T23:00:02.075Z,13.60
2018-10-02T23:02:30.791Z,13.60
2018-10-02T23:04:59.374Z,13.60
2018-10-02T23:07:27.966Z,13.70
2018-10-02T23:09:56.882Z,13.70
2018-10-02T23:12:25.531Z,13.70
2018-10-02T23:14:54.199Z,13.80
2018-10-02T23:17:22.767Z,13.80
2018-10-02T23:19:51.388Z,13.80
2018-10-02T23:22:20.024Z,13.90
2018-10-02T23:24:48.700Z,13.90
2018-10-02T23:27:17.303Z,13.90
2018-10-02T23:29:45.981Z,13.90
2018-10-02T23:32:14.599Z,13.90
2018-10-02T23:34:43.211Z,13.90
2018-10-02T23:37:11.815Z,13.90
2018-10-02T23:39:40.420Z,13.90
2018-10-02T23:42:09.035Z,14.00
2018-10-02T23:44:37.616Z,13.90
2018-10-02T23:47:06.535Z,14.00
2018-10-02T23:49:35.226Z,14.00
2018-10-02T23:52:03.804Z,14.00
2018-10-02T23:54:32.624Z,14.00
2018-10-02T23:57:01.271Z,13.90
2018-10-02T23:59:29.922Z,13.90
